Aviation Digital Data Service (ADDS)

Output produced by METARs form (0243 UTC 24 July 2017)
found at http://www.aviationweather.gov/adds/metars/
 
KFAR 232337Z 2400/2424 06005KT P6SM SCT040 
     FM240300 13005KT P6SM SKC 
     FM241400 16010KT P6SM FEW250 
     FM242100 16013G21KT P6SM FEW250
       
KFAT 232320Z 2400/2424 31008KT P6SM SKC
       
KFAY 232338Z 2400/2424 17010G20KT 4SM -TSRA BR BKN015CB 
     FM240200 VRB05KT P6SM SCT040 BKN080 
     FM240900 00000KT 2SM BR SCT001 
     TEMPO 2409/2412 1/2SM FG VV001 
     FM241400 22010G16KT P6SM BKN040
       
TAF KFBG 240100Z 2401/2507 21012KT 8000 -SHRA BKN030 QNH2984INS 
     BECMG 2401/2402 22009KT 8000 BR FEW015 SCT050 QNH2984INS 
     BECMG 2408/2409 22006KT 8000 BR BKN010 QNH2987INS 
     BECMG 2414/2415 24010G15KT 8000 -SHRA BKN050 QNH2992INS 
     TEMPO 2420/2424 VRB25G35KT 4800 -TSRA BKN030CB 
     BECMG 2423/2424 23006KT 9999 NSW FEW050 SCT100 QNH2994INS TX35/2421Z TN23/2412Z
       
TAF KFCS 232103Z 2321/2503 16009KT 9999 SCT080 SCT200 QNH3015INS 
     TEMPO 2321/2402 VRB10G25KT VCTS SCT110CB BKN130 
     BECMG 2401/2402 15009KT 9999 SCT200 QNH3019INS TX29/2321Z TN17/2412Z
       
KFDY 232330Z 2400/2424 30006KT P6SM VCTS SCT030CB BKN200 
     FM240200 30005KT P6SM SCT030 
     FM240800 29004KT 5SM BR FEW050 
     FM241200 32008KT P6SM BKN030 
     FM241500 34010KT P6SM BKN045
       
TAF AMD KFFO 240145Z 2401/2501 22009KT 9999 FEW070 SCT120 SCT160 QNH2975INS 
     TEMPO 2401/2404 28015G25KT 4800 -TSRA OVC030CB 
     BECMG 2403/2404 VRB06KT 9999 FEW010 SCT040 QNH2977INS 
     BECMG 2408/2409 VRB06KT 3200 BR FEW003 BKN010 QNH2986INS 
     BECMG 2411/2412 33006KT 1600 BR OVC003 QNH2988INS 
     BECMG 2414/2415 32009KT 9999 NSW FEW040 FEW250 QNH2989INS TX22/2401Z TN18/2410Z
       
TAF KFHU 240204Z 2402/2508 VRB06KT 9000 -SHRA BKN100 OVC150 QNH3009INS 
     BECMG 2406/2407 VRB06KT 9999 NSW FEW003 SCT010 BKN015 QNH3016INS 
     BECMG 2416/2417 26009KT 9999 VCSH SCT030 QNH3009INS 
     BECMG 2420/2421 VRB06KT 9000 -SHRA VCTS BKN030CB QNH3009INS 
     BECMG 2502/2503 VRB06KT 9000 -SHRA SCT025 QNH3012INS TX25/2421Z TN18/2412Z
       
KFKL 232329Z 2400/2424 26003KT P6SM BKN040 
     FM240300 25003KT P6SM VCTS BKN040CB 
     TEMPO 2403/2405 3SM -TSRA BKN040CB 
     FM240600 25003KT 3SM BR BKN025 
     FM240800 24004KT 2SM BR BKN008 
     FM241300 26005KT P6SM SCT015 
     FM241500 27007KT P6SM BKN035 AMD LTD TO CLD VIS AND WIND
       
KFLG 232327Z 2400/2424 VRB05KT P6SM VCSH SCT060 OVC080 
     TEMPO 2400/2402 5SM -SHRA BR BKN060 
     FM240200 VRB05KT P6SM VCSH BKN040 OVC060 
     TEMPO 2402/2406 5SM -SHRA BR BKN035 
     FM241500 VRB05KT P6SM -SHRA SCT020 OVC040
       
KFLL 232320Z 2400/2424 14011KT P6SM FEW100 SCT120 BKN250 
     FM240200 14003KT P6SM FEW030 SCT250 
     FM241400 13010KT P6SM SCT030 SCT250
       
KFLO 240008Z 2400/2424 VRB12G25KT 3SM TSRA SCT015 BKN025CB OVC060 
     FM240130 22007KT P6SM VCSH SCT025 BKN045 OVC150 
     FM240500 22004KT P6SM BKN250 
     FM241400 23008KT P6SM VCTS FEW030CB BKN050 
     FM241800 24009KT 6SM -TSRA SCT020 BKN035CB 
     PROB30 2418/2424 VRB20G30KT 3SM TSRA SCT015 BKN025CB OVC040
       
KFMH 232325Z 2400/2424 07007KT P6SM SCT100 
     FM241000 10010G19KT P6SM -RA BKN090 
     FM241200 09011G19KT P6SM -RA SCT010 OVC050 
     FM241400 07013G29KT 2SM RA BR OVC008 
     FM242000 05014G25KT P6SM VCSH OVC008
       
KFMN 232339Z 2400/2424 08010KT P6SM VCSH BKN100 
     FM240200 09013G21KT P6SM BKN100 
     FM240900 09011KT P6SM VCSH BKN060 
     FM241200 11010KT P6SM SCT150 BKN200 
     FM242100 21010KT P6SM VCTS BKN080CB
       
KFMY 240026Z 2400/2424 10005KT P6SM FEW030 SCT100 BKN250 
     FM240200 VRB03KT P6SM FEW050 SCT100 BKN250 
     FM241500 23006KT P6SM FEW025 SCT100 BKN250 
     FM241800 26007KT P6SM VCTS SCT030CB SCT100 BKN250
       
KFNT 232332Z 2400/2424 30007KT P6SM SCT050 BKN100 
     FM240800 30010KT P6SM OVC007 
     FM241600 33010KT P6SM BKN035 
     FM242000 36013KT P6SM SCT050
       
KFOD 232320Z 2400/2424 36009KT P6SM FEW040 FEW050 
     FM240200 01005KT P6SM SKC 
     FM241100 VRB03KT 3SM BR FEW210 
     TEMPO 2411/2413 VRB03KT 1/4SM FG BKN005 
     FM241400 VRB03KT P6SM FEW180 
     FM242000 13006KT P6SM FEW230
       
KFOE 232335Z 2400/2424 07006KT P6SM FEW250
       
KFPR 232326Z 2400/2424 00000KT P6SM BKN200 
     FM241400 22005KT P6SM SCT025 BKN200 
     FM241800 12008KT P6SM SCT040 BKN250
       
KFSD 232320Z 2400/2424 03007KT P6SM SKC 
     FM240200 06006KT P6SM SKC 
     FM240500 VRB03KT P6SM SKC 
     FM241100 VRB03KT 5SM BR SKC 
     FM241400 15008KT P6SM SKC 
     FM242000 15011KT P6SM SKC
       
KFSM 232320Z 2400/2424 02007KT P6SM SCT060 BKN150 
     FM240600 VRB03KT P6SM SCT250 
     FM241800 05004KT P6SM SCT050
       
KFST 232321Z 2400/2424 19012KT P6SM FEW060 SCT120 BKN200 
     FM240900 17006KT P6SM BKN200
       
TAF KFTK 240100Z 2401/2507 VRB06KT 9999 SKC QNH2981INS 
     BECMG 2413/2414 24009KT 9999 FEW050 QNH2991INS 
     BECMG 2420/2421 28009KT 9999 BKN040 OVC075 QNH2992INS 
     TEMPO 2423/2505 28020G25KT 6000 -TSRA OVC030CB TX31/2421Z TN22/2409Z
       
KFTW 240211Z 2402/2424 17008KT P6SM FEW080 SCT250 
     FM240300 02015KT P6SM VCTS BKN060CB 
     FM240700 21008KT P6SM BKN120 
     FM242000 19009KT P6SM VCTS SCT050CB BKN120
       
KFTY 232337Z 2400/2424 25009KT P6SM VCSH SCT050 
     TEMPO 2400/2402 VRB15G25KT 3SM TSRA BKN035CB 
     FM240200 23005KT P6SM FEW050 SCT120 SCT250 
     FM241400 27006KT P6SM FEW040 SCT250 
     FM241600 27007KT P6SM VCSH SCT050 
     PROB30 2417/2423 4SM TSRA BKN035CB
       
KFVE 232320Z 2400/2424 32004KT P6SM FEW070 SCT250
       
KFWA 232330Z 2400/2424 33005KT P6SM SCT100 
     FM240500 30004KT P6SM BKN080 
     FM241100 32005KT P6SM BKN025
       
KFXE 232320Z 2400/2424 14010KT P6SM FEW120 SCT250 
     FM240200 00000KT P6SM FEW030 SCT250 
     FM241500 13009KT P6SM SCT030 SCT250
       
KFYV 232320Z 2400/2424 VRB04KT P6SM SCT120 BKN250 
     FM240600 00000KT P6SM SCT250 
     TEMPO 2409/2411 4SM BR 
     FM241200 00000KT 4SM BR SKC 
     FM241400 VRB04KT P6SM SKC